Pagrindinis puslapis
METAR-TAF:

METAR-TAF

Oro uostai :

Banska Bistrica, Slovakija

platuma: 48-38-17N, ilguma: 019-08-03E, Aukštis: 318 m

METAR: trūkstamas

Laikas: 06:15 (04:15 UTC)

Prognozė

Ataskaita buvo paskelbta 8 valandos ir 45 minutes, ne 19:30 UTC
Prognozė galioja nuo 19 metu 21 UTC su 20 metu 06 UTC
Vėjas 3 kt nuo kintamojo kryptimis
Matomumas 10 km arba daugiau
Mažai debesys ne aukštis 5000 ft
Laikinai
nuo 19 metu 21 UTC su 19 metu 22 UTC
Mažai debesys ne aukštis 3000 ft, aukštai iškilę kamuoliniai debesys.
Su prošvaistėmis ne aukštis 4000 ft
lietus
Laikinai
nuo 20 metu 01 UTC su 20 metu 06 UTC
Matomumas: 0300 m
Su prošvaistėmis ne aukštis 100 ft
rūkas,

TAF: LZSL 191930Z 1921/2006 VRB03KT 9999 FEW050 TEMPO 1921/1922 -SHRA FEW030TCU BKN040 TEMPO 2001/2006 0300 FG BKN001

Orai ataskaitas ir orų prognozės (METAR, TAF).

turimą stotys yra geltonos ir raudonos taškus žemėlapyje.

Perkelti pele per norėdami pamatyti stoties vardą.

Tada spustelėkite, norėdami matyti oro stebėjimo ir prognozės.

Norėdami pakeisti žemėlapį: spustelėkite ant žalios mygtukų su juodo kryžiaus žemyn,; žalią mygtuką su brūkšneliu, jei norite nutolinti; arba žalių rodyklių gretimoms žemėlapius.


METAR-TAF: